createdAt,value
2022-10-11T00:02:16.364Z,21.60
2022-10-11T00:04:44.756Z,21.20
2022-10-11T00:07:11.803Z,20.30
2022-10-11T00:09:39.741Z,15.00
2022-10-11T00:12:06.977Z,15.40
2022-10-11T00:14:34.581Z,16.00
2022-10-11T00:17:01.659Z,16.50
2022-10-11T00:19:29.477Z,15.90
2022-10-11T00:21:56.747Z,16.00
2022-10-11T00:24:23.766Z,15.20
2022-10-11T00:26:50.916Z,16.70
2022-10-11T00:29:19.083Z,15.80
2022-10-11T00:31:46.317Z,13.50
2022-10-11T00:34:13.641Z,14.00
2022-10-11T00:36:41.369Z,15.00
2022-10-11T00:39:08.725Z,14.30
2022-10-11T00:41:36.637Z,15.00
2022-10-11T00:44:19.168Z,15.00
2022-10-11T00:47:03.789Z,14.30
2022-10-11T00:49:39.045Z,16.10
2022-10-11T00:52:16.199Z,12.50
2022-10-11T00:54:44.281Z,11.80
2022-10-11T00:57:14.587Z,14.00
2022-10-11T00:59:45.440Z,13.90
2022-10-11T01:02:12.597Z,13.10
2022-10-11T01:04:39.834Z,13.60
2022-10-11T01:07:06.798Z,13.20
2022-10-11T01:09:34.122Z,11.90
2022-10-11T01:12:02.955Z,10.60
2022-10-11T01:14:59.735Z,10.80
2022-10-11T01:17:30.051Z,11.90
2022-10-11T01:20:28.277Z,12.10
2022-10-11T01:23:01.669Z,12.00
2022-10-11T01:25:34.990Z,12.70
2022-10-11T01:28:30.128Z,12.80
2022-10-11T01:31:01.017Z,12.10
2022-10-11T01:33:41.493Z,11.40
2022-10-11T01:36:20.218Z,9.30
2022-10-11T01:38:51.064Z,10.70
2022-10-11T01:41:46.510Z,10.00
2022-10-11T01:44:15.362Z,10.90
2022-10-11T01:46:42.445Z,11.20
2022-10-11T01:49:09.497Z,10.70
2022-10-11T01:51:43.963Z,10.80
2022-10-11T01:54:56.476Z,11.00
2022-10-11T01:57:21.662Z,10.80
2022-10-11T01:59:48.718Z,8.70
2022-10-11T02:02:34.705Z,9.10
2022-10-11T02:05:06.925Z,9.30
2022-10-11T02:07:33.942Z,9.40
2022-10-11T02:10:07.818Z,9.50
2022-10-11T02:12:41.825Z,9.90
2022-10-11T02:15:11.770Z,10.00
2022-10-11T02:17:41.488Z,9.60
2022-10-11T02:20:11.734Z,8.00
2022-10-11T02:22:39.427Z,8.10
2022-10-11T02:25:09.121Z,8.30
2022-10-11T02:27:38.524Z,8.90
2022-10-11T02:30:07.722Z,7.90
2022-10-11T02:32:35.293Z,8.10
2022-10-11T02:35:04.266Z,8.10
2022-10-11T02:37:32.248Z,8.10
2022-10-11T02:40:22.408Z,8.10
2022-10-11T02:43:01.457Z,6.30
2022-10-11T02:45:37.817Z,6.70
2022-10-11T02:48:05.611Z,7.40
2022-10-11T02:50:32.696Z,8.10
2022-10-11T02:53:00.154Z,8.90
2022-10-11T02:55:27.429Z,9.70
2022-10-11T02:57:54.909Z,9.80
2022-10-11T03:00:22.230Z,10.00
2022-10-11T03:02:49.514Z,6.60
2022-10-11T03:05:17.207Z,7.60
2022-10-11T03:07:45.883Z,8.30
2022-10-11T03:10:13.029Z,8.50
2022-10-11T03:12:40.092Z,8.00
2022-10-11T03:15:10.890Z,8.60
2022-10-11T03:17:39.507Z,8.90
2022-10-11T03:20:07.479Z,9.40
2022-10-11T03:22:34.788Z,7.60
2022-10-11T03:25:06.910Z,7.50
2022-10-11T03:27:36.274Z,7.70
2022-10-11T03:30:04.310Z,8.60
2022-10-11T03:32:31.501Z,9.00
2022-10-11T03:34:59.321Z,8.70
2022-10-11T03:37:26.309Z,9.10
2022-10-11T03:39:53.556Z,9.50
2022-10-11T03:42:20.637Z,10.40
2022-10-11T03:44:50.281Z,8.50
2022-10-11T03:47:17.486Z,8.20
2022-10-11T03:49:45.554Z,9.40
2022-10-11T03:52:12.929Z,10.10
2022-10-11T03:54:39.948Z,10.70
2022-10-11T03:57:06.969Z,11.10
2022-10-11T03:59:35.243Z,12.10
2022-10-11T04:02:02.329Z,12.20
2022-10-11T04:04:29.799Z,12.30
2022-10-11T04:06:56.785Z,10.50
2022-10-11T04:09:24.089Z,11.00
2022-10-11T04:11:52.085Z,11.00
2022-10-11T04:14:19.037Z,13.30
2022-10-11T04:16:46.041Z,12.30
2022-10-11T04:19:13.682Z,16.70
2022-10-11T04:21:41.535Z,28.70
2022-10-11T04:24:11.086Z,36.70
2022-10-11T04:26:39.089Z,34.20
2022-10-11T04:29:06.209Z,26.10
2022-10-11T04:31:35.508Z,23.50
2022-10-11T04:34:02.812Z,29.60
2022-10-11T04:36:33.068Z,30.70
2022-10-11T04:39:01.760Z,27.20
2022-10-11T04:41:29.580Z,19.20
2022-10-11T04:43:57.198Z,19.90
2022-10-11T04:46:24.677Z,20.50
2022-10-11T04:48:51.840Z,16.90
2022-10-11T04:51:18.982Z,14.20
2022-10-11T04:53:46.027Z,14.60
2022-10-11T04:56:15.056Z,14.20
2022-10-11T04:58:42.454Z,14.30
2022-10-11T05:01:10.123Z,13.40
2022-10-11T05:03:37.625Z,14.40
2022-10-11T05:06:06.070Z,16.00
2022-10-11T05:08:33.937Z,13.60
2022-10-11T05:11:09.818Z,16.60
2022-10-11T05:13:37.560Z,17.90
2022-10-11T05:16:10.298Z,19.30
2022-10-11T05:18:38.137Z,15.70
2022-10-11T05:21:15.955Z,14.70
2022-10-11T05:23:43.129Z,20.90
2022-10-11T05:26:10.179Z,18.20
2022-10-11T05:28:37.999Z,18.30
2022-10-11T05:31:05.618Z,12.40
2022-10-11T05:33:32.711Z,13.80
2022-10-11T05:36:00.598Z,13.80
2022-10-11T05:38:27.794Z,17.20
2022-10-11T05:40:54.899Z,42.80
2022-10-11T05:43:21.896Z,46.20
2022-10-11T05:48:20.096Z,39.40
2022-10-11T05:50:47.848Z,34.40
2022-10-11T05:53:14.780Z,36.10
2022-10-11T05:55:42.610Z,54.10
2022-10-11T05:58:13.930Z,70.20
2022-10-11T06:00:41.159Z,57.90
2022-10-11T06:03:08.580Z,55.50
2022-10-11T06:05:37.969Z,64.80
2022-10-11T06:08:06.723Z,78.70
2022-10-11T06:10:33.853Z,109.00
2022-10-11T06:13:00.966Z,106.70
2022-10-11T06:15:28.046Z,84.30
2022-10-11T06:17:59.905Z,60.80
2022-10-11T06:20:28.516Z,37.40
2022-10-11T06:22:55.825Z,37.50
2022-10-11T06:25:22.912Z,36.10
2022-10-11T06:27:50.035Z,31.40
2022-10-11T06:30:17.261Z,22.50
2022-10-11T06:32:44.745Z,20.00
2022-10-11T06:35:11.944Z,17.40
2022-10-11T06:37:38.963Z,23.40
2022-10-11T06:40:06.638Z,17.20
2022-10-11T06:42:33.647Z,18.00
2022-10-11T06:45:00.592Z,18.00
2022-10-11T06:47:28.031Z,14.50
2022-10-11T06:49:55.274Z,14.00
2022-10-11T06:52:22.589Z,11.10
2022-10-11T06:54:50.820Z,9.70
2022-10-11T06:57:17.927Z,13.00
2022-10-11T06:59:44.901Z,7.60
2022-10-11T10:09:28.149Z,4.90
2022-10-11T10:11:56.350Z,6.40
2022-10-11T10:14:31.866Z,5.50
2022-10-11T10:17:03.197Z,5.80
2022-10-11T10:19:34.838Z,5.80
2022-10-11T10:22:01.287Z,5.30
2022-10-11T10:24:37.718Z,5.90
2022-10-11T10:27:10.483Z,5.60
2022-10-11T10:29:38.420Z,5.70
2022-10-11T10:32:15.968Z,6.00
2022-10-11T10:35:20.163Z,6.40
2022-10-11T10:38:06.943Z,6.60
2022-10-11T10:41:00.806Z,7.80
2022-10-11T10:43:30.720Z,6.90
2022-10-11T10:46:28.119Z,6.80
2022-10-11T10:52:20.685Z,7.40
2022-10-11T10:55:02.606Z,6.20
2022-10-11T10:57:36.312Z,6.30
2022-10-11T11:00:15.466Z,7.10
2022-10-11T11:03:01.901Z,6.70
2022-10-11T11:05:56.138Z,6.30
2022-10-11T11:08:40.815Z,6.30
2022-10-11T11:11:11.974Z,5.80
2022-10-11T11:13:52.051Z,6.40
2022-10-11T11:16:51.390Z,7.10
2022-10-11T11:19:30.196Z,6.80
2022-10-11T11:22:01.579Z,6.80
2022-10-11T11:24:40.115Z,6.80
2022-10-11T11:27:14.818Z,7.20
2022-10-11T11:29:55.567Z,7.60
2022-10-11T11:32:48.842Z,7.10
2022-10-11T11:35:40.698Z,7.30
2022-10-11T11:38:14.574Z,5.60
2022-10-11T11:40:45.942Z,5.70
2022-10-11T11:43:18.766Z,6.70
2022-10-11T11:46:13.585Z,6.90
2022-10-11T11:48:39.998Z,6.60
2022-10-11T11:51:19.132Z,6.30
2022-10-11T11:54:01.182Z,7.60
2022-10-11T11:56:46.518Z,6.30
2022-10-11T11:59:16.218Z,6.80
2022-10-11T12:01:51.246Z,7.50
2022-10-11T12:04:39.135Z,7.10
2022-10-11T12:07:22.391Z,7.00
2022-10-11T12:09:51.782Z,6.90
2022-10-11T12:12:33.459Z,8.60
2022-10-11T12:17:55.323Z,6.80
2022-10-11T12:20:29.294Z,6.90
2022-10-11T12:23:00.175Z,7.00
2022-10-11T12:25:26.465Z,8.00
2022-10-11T12:27:54.227Z,8.40
2022-10-11T12:30:50.143Z,8.00
2022-10-11T12:33:42.565Z,7.40
2022-10-11T12:36:28.190Z,8.90
2022-10-11T12:39:38.109Z,9.00
2022-10-11T12:42:18.066Z,8.40
2022-10-11T12:45:14.338Z,8.60
2022-10-11T12:48:02.298Z,8.10
2022-10-11T12:50:33.874Z,85.80
2022-10-11T12:53:37.775Z,105.80
2022-10-11T12:56:26.601Z,61.70
2022-10-11T12:59:01.020Z,66.00
2022-10-11T13:01:33.301Z,79.70
2022-10-11T13:04:03.429Z,152.80
2022-10-11T13:06:45.551Z,26.60
2022-10-11T13:09:44.165Z,20.30
2022-10-11T13:12:20.240Z,14.80
2022-10-11T13:14:59.925Z,45.10
2022-10-11T13:17:34.491Z,22.10
2022-10-11T13:20:12.535Z,13.40
2022-10-11T13:22:39.859Z,36.80
2022-10-11T13:25:07.036Z,73.10
2022-10-11T13:27:33.265Z,23.20
2022-10-11T13:30:01.712Z,14.20
2022-10-11T13:32:29.567Z,20.70
2022-10-11T13:35:02.669Z,16.40
2022-10-11T13:37:29.500Z,10.90
2022-10-11T13:39:56.051Z,16.00
2022-10-11T13:42:29.180Z,11.90
2022-10-11T13:44:55.731Z,18.80
2022-10-11T13:47:24.276Z,29.60
2022-10-11T13:50:00.978Z,29.70
2022-10-11T13:52:27.313Z,18.60
2022-10-11T13:55:00.301Z,16.00
2022-10-11T13:57:38.912Z,11.60
2022-10-11T14:00:14.983Z,20.90
2022-10-11T14:02:56.912Z,15.90
2022-10-11T14:05:30.429Z,14.30
2022-10-11T14:08:01.188Z,14.30
2022-10-11T14:10:30.646Z,11.80
2022-10-11T14:13:06.807Z,14.10
2022-10-11T14:15:36.269Z,19.10
2022-10-11T14:18:36.278Z,24.90
2022-10-11T14:21:18.873Z,15.60
2022-10-11T14:24:00.499Z,17.40
2022-10-11T14:26:55.839Z,11.40
2022-10-11T14:29:28.842Z,11.10
2022-10-11T14:32:02.533Z,11.30
2022-10-11T14:34:28.913Z,11.50
2022-10-11T14:36:55.370Z,11.50
2022-10-11T14:39:25.663Z,10.20
2022-10-11T14:41:52.209Z,22.40
2022-10-11T14:44:18.665Z,13.90
2022-10-11T14:46:45.505Z,14.30
2022-10-11T14:49:28.726Z,13.90
2022-10-11T14:51:55.926Z,14.40
2022-10-11T14:54:23.099Z,12.10
2022-10-11T14:56:53.407Z,13.20
2022-10-11T14:59:21.756Z,15.10
2022-10-11T15:01:52.833Z,15.90
2022-10-11T15:04:20.071Z,20.80
2022-10-11T15:06:46.836Z,27.80
2022-10-11T15:09:13.203Z,16.40
2022-10-11T15:11:39.701Z,16.40
2022-10-11T15:14:06.758Z,14.60
2022-10-11T15:16:34.588Z,66.30
2022-10-11T15:19:01.114Z,146.50
2022-10-11T15:21:28.198Z,46.70
2022-10-11T15:23:54.978Z,39.60
2022-10-11T15:26:25.669Z,23.50
2022-10-11T15:28:52.818Z,21.90
2022-10-11T15:31:19.374Z,23.50
2022-10-11T15:33:46.151Z,24.20
2022-10-11T15:36:17.335Z,29.00
2022-10-11T15:38:43.847Z,17.20
2022-10-11T15:41:12.735Z,19.60
2022-10-11T15:43:39.701Z,18.30
2022-10-11T15:46:13.123Z,20.50
2022-10-11T15:48:39.899Z,20.80
2022-10-11T15:51:06.187Z,21.60
2022-10-11T15:53:33.118Z,21.00
2022-10-11T15:56:01.571Z,23.30
2022-10-11T15:58:28.842Z,21.80
2022-10-11T16:00:57.421Z,23.20
2022-10-11T16:03:25.281Z,27.20
2022-10-11T16:07:43.924Z,28.50
2022-10-11T16:10:10.970Z,21.50
2022-10-11T16:12:37.998Z,23.60
2022-10-11T16:15:06.121Z,25.40
2022-10-11T16:17:33.655Z,26.90
2022-10-11T16:20:01.146Z,24.70
2022-10-11T16:22:28.189Z,27.80
2022-10-11T16:24:55.155Z,30.00
2022-10-11T16:27:23.164Z,33.40
2022-10-11T16:29:50.414Z,38.40
2022-10-11T16:32:17.425Z,38.10
2022-10-11T16:37:33.114Z,41.70
2022-10-11T16:40:00.242Z,40.90
2022-10-11T16:42:27.531Z,36.60
2022-10-11T16:44:54.453Z,39.50
2022-10-11T16:47:21.796Z,31.60
2022-10-11T16:49:49.316Z,35.10
2022-10-11T16:52:16.324Z,37.90
2022-10-11T16:54:45.457Z,35.30
2022-10-11T16:57:13.470Z,34.20
2022-10-11T16:59:41.045Z,39.90
2022-10-11T17:02:09.885Z,34.20
2022-10-11T17:04:36.854Z,32.70
2022-10-11T17:07:04.324Z,33.80
2022-10-11T17:09:31.368Z,34.40
2022-10-11T17:11:58.301Z,32.70
2022-10-11T17:14:25.563Z,23.80
2022-10-11T17:16:53.241Z,28.30
2022-10-11T17:19:20.157Z,39.70
2022-10-11T17:21:47.250Z,31.80
2022-10-11T17:24:14.212Z,30.80
2022-10-11T17:26:42.431Z,32.40
2022-10-11T17:29:13.194Z,37.60
2022-10-11T17:31:48.108Z,36.30
2022-10-11T17:34:16.505Z,40.30
2022-10-11T17:36:43.688Z,33.90
2022-10-11T17:39:16.968Z,31.10
2022-10-11T17:41:45.836Z,30.30
2022-10-11T17:44:13.035Z,44.40
2022-10-11T17:46:40.218Z,46.00
2022-10-11T17:49:07.777Z,45.40
2022-10-11T17:51:36.503Z,42.80
2022-10-11T17:54:04.741Z,43.50
2022-10-11T17:56:37.385Z,42.00
2022-10-11T17:59:05.606Z,34.30
2022-10-11T18:01:32.823Z,34.60
2022-10-11T18:04:04.432Z,38.10
2022-10-11T18:06:35.073Z,41.20
2022-10-11T18:09:02.472Z,41.40
2022-10-11T18:11:33.592Z,42.40
2022-10-11T18:14:02.110Z,44.70
2022-10-11T18:16:29.912Z,40.30
2022-10-11T18:18:57.906Z,42.70
2022-10-11T18:21:28.767Z,36.10
2022-10-11T18:24:01.909Z,34.20
2022-10-11T18:26:30.625Z,35.50
2022-10-11T18:28:58.470Z,37.60
2022-10-11T18:31:29.874Z,33.50
2022-10-11T18:33:56.901Z,35.30
2022-10-11T18:36:26.935Z,42.10
2022-10-11T18:38:59.120Z,37.60
2022-10-11T18:41:31.903Z,45.50
2022-10-11T18:44:01.781Z,41.00
2022-10-11T18:46:29.181Z,39.70
2022-10-11T18:48:56.887Z,60.80
2022-10-11T18:51:27.929Z,40.20
2022-10-11T18:53:55.053Z,58.80
2022-10-11T18:56:23.933Z,42.90
2022-10-11T18:58:51.968Z,51.30
2022-10-11T19:01:20.279Z,51.30
2022-10-11T19:03:49.212Z,54.90
2022-10-11T19:06:17.821Z,38.50
2022-10-11T19:09:04.620Z,51.20
2022-10-11T19:11:36.823Z,58.50
2022-10-11T19:14:08.982Z,52.80
2022-10-11T19:16:39.190Z,61.60
2022-10-11T19:19:07.263Z,61.60
2022-10-11T19:21:34.377Z,61.50
2022-10-11T19:24:01.343Z,46.40
2022-10-11T19:26:33.628Z,59.60
2022-10-11T19:29:08.881Z,47.40
2022-10-11T19:31:37.458Z,50.40
2022-10-11T19:34:04.579Z,51.60
2022-10-11T19:36:36.444Z,56.20
2022-10-11T19:39:05.055Z,48.50
2022-10-11T19:41:32.393Z,54.40
2022-10-11T19:43:59.823Z,55.20
2022-10-11T19:46:49.963Z,51.50
2022-10-11T19:49:17.503Z,49.90
2022-10-11T19:51:45.242Z,41.00
2022-10-11T19:54:12.869Z,45.60
2022-10-11T19:56:39.857Z,48.70
2022-10-11T19:59:06.925Z,46.30
2022-10-11T20:01:34.880Z,49.40
2022-10-11T20:04:04.049Z,49.30
2022-10-11T20:06:37.208Z,50.30
2022-10-11T20:09:27.867Z,52.50
2022-10-11T20:11:53.217Z,41.80
2022-10-11T20:14:20.657Z,45.20
2022-10-11T20:16:49.950Z,45.10
2022-10-11T20:19:17.305Z,46.60
2022-10-11T20:21:45.523Z,44.80
2022-10-11T20:24:12.521Z,43.10
2022-10-11T20:26:39.537Z,41.50
2022-10-11T20:29:07.585Z,41.80
2022-10-11T20:31:38.269Z,42.00
2022-10-11T20:34:07.445Z,34.90
2022-10-11T20:36:36.423Z,37.50
2022-10-11T20:39:03.953Z,38.40
2022-10-11T20:41:33.078Z,40.10
2022-10-11T20:44:01.590Z,41.70
2022-10-11T20:46:32.932Z,39.20
2022-10-11T20:49:02.322Z,39.00
2022-10-11T20:51:30.691Z,42.50
2022-10-11T20:53:58.435Z,33.80
2022-10-11T20:56:25.830Z,37.70
2022-10-11T20:58:54.132Z,37.10
2022-10-11T21:01:30.074Z,39.60
2022-10-11T21:03:58.216Z,37.30
2022-10-11T21:06:27.741Z,40.40
2022-10-11T21:08:55.937Z,41.80
2022-10-11T21:11:31.363Z,41.40
2022-10-11T21:13:59.338Z,30.60
2022-10-11T21:16:28.657Z,35.60
2022-10-11T21:18:57.025Z,38.20
2022-10-11T21:21:24.502Z,39.00
2022-10-11T21:23:59.791Z,40.00
2022-10-11T21:26:27.982Z,38.10
2022-10-11T21:28:55.351Z,38.60
2022-10-11T21:31:22.821Z,40.80
2022-10-11T21:33:50.656Z,32.40
2022-10-11T21:36:19.224Z,34.20
2022-10-11T21:38:46.716Z,35.40
2022-10-11T21:41:15.398Z,35.20
2022-10-11T21:43:42.775Z,31.80
2022-10-11T21:46:18.051Z,25.00
2022-10-11T21:48:46.945Z,25.70
2022-10-11T21:53:47.339Z,24.70
2022-10-11T21:56:14.985Z,24.20
2022-10-11T21:58:42.097Z,22.30
2022-10-11T22:01:11.048Z,22.30
2022-10-11T22:03:37.998Z,25.30
2022-10-11T22:06:05.396Z,25.80
2022-10-11T22:08:32.913Z,25.80
2022-10-11T22:11:02.247Z,34.90
2022-10-11T22:13:31.399Z,38.00
2022-10-11T22:16:01.279Z,42.00
2022-10-11T22:18:33.091Z,43.30
2022-10-11T22:21:14.398Z,43.70
2022-10-11T22:23:42.309Z,39.30
2022-10-11T22:26:14.764Z,30.40
2022-10-11T22:28:42.049Z,32.80
2022-10-11T22:31:09.370Z,32.40
2022-10-11T22:33:36.952Z,35.20
2022-10-11T22:36:05.557Z,34.80
2022-10-11T22:38:32.649Z,31.20
2022-10-11T22:40:59.843Z,28.90
2022-10-11T22:43:26.943Z,28.40
2022-10-11T22:45:54.054Z,26.40
2022-10-11T22:48:21.234Z,29.60
2022-10-11T22:50:49.492Z,30.20
2022-10-11T22:53:16.416Z,30.70
2022-10-11T22:55:43.675Z,27.80
2022-10-11T22:58:10.799Z,26.50
2022-10-11T23:00:38.044Z,25.10
2022-10-11T23:03:07.163Z,19.80
2022-10-11T23:05:36.074Z,20.10
2022-10-11T23:08:03.041Z,21.10
2022-10-11T23:10:30.181Z,21.20
2022-10-11T23:13:01.114Z,20.40
2022-10-11T23:15:28.115Z,20.50
2022-10-11T23:17:55.048Z,19.90
2022-10-11T23:20:22.413Z,17.20
2022-10-11T23:22:49.406Z,17.90
2022-10-11T23:25:16.345Z,17.10
2022-10-11T23:27:43.733Z,18.20
2022-10-11T23:30:12.025Z,18.20
2022-10-11T23:32:39.081Z,18.80
2022-10-11T23:35:06.478Z,19.60
2022-10-11T23:37:34.411Z,19.10
2022-10-11T23:40:01.533Z,17.80
2022-10-11T23:42:28.753Z,18.80
2022-10-11T23:44:55.807Z,14.70
2022-10-11T23:47:25.929Z,16.90
2022-10-11T23:49:53.105Z,15.90
2022-10-11T23:52:20.053Z,16.20
2022-10-11T23:54:47.459Z,17.70
2022-10-11T23:57:14.363Z,19.20
2022-10-11T23:59:41.324Z,15.50
